createdAt,value
2019-01-30T00:02:29.447Z,4.27
2019-01-30T00:04:59.864Z,5.83
2019-01-30T00:07:31.194Z,4.10
2019-01-30T00:10:01.512Z,4.60
2019-01-30T00:12:33.053Z,3.50
2019-01-30T00:15:03.382Z,3.53
2019-01-30T00:17:33.698Z,3.70
2019-01-30T00:20:05.337Z,4.93
2019-01-30T00:22:35.687Z,5.67
2019-01-30T00:25:06.424Z,3.73
2019-01-30T00:27:36.729Z,4.20
2019-01-30T00:30:08.541Z,3.67
2019-01-30T00:32:38.794Z,5.33
2019-01-30T00:35:09.587Z,5.03
2019-01-30T00:37:39.951Z,5.80
2019-01-30T00:40:10.960Z,5.97
2019-01-30T00:42:41.136Z,6.27
2019-01-30T00:45:13.615Z,4.23
2019-01-30T00:47:44.173Z,4.87
2019-01-30T00:50:15.064Z,5.47
2019-01-30T00:52:45.439Z,5.03
2019-01-30T00:55:16.095Z,5.70
2019-01-30T00:57:46.723Z,4.70
2019-01-30T01:00:19.107Z,4.67
2019-01-30T01:02:49.514Z,3.97
2019-01-30T01:05:19.917Z,6.40
2019-01-30T01:07:50.214Z,4.77
2019-01-30T01:10:20.646Z,8.17
2019-01-30T01:12:51.819Z,6.00
2019-01-30T01:15:22.487Z,4.87
2019-01-30T01:17:52.805Z,5.70
2019-01-30T01:20:23.243Z,5.17
2019-01-30T01:22:53.555Z,5.03
2019-01-30T01:25:23.775Z,5.07
2019-01-30T01:27:54.138Z,5.20
2019-01-30T01:30:28.182Z,6.50
2019-01-30T01:32:58.455Z,7.10
2019-01-30T01:35:28.771Z,5.20
2019-01-30T01:37:59.127Z,6.33
2019-01-30T01:40:29.329Z,4.93
2019-01-30T01:42:59.531Z,6.27
2019-01-30T01:45:29.844Z,4.00
2019-01-30T01:48:00.238Z,4.03
2019-01-30T01:50:30.632Z,7.67
2019-01-30T01:53:00.929Z,7.17
2019-01-30T01:55:31.192Z,7.47
2019-01-30T01:58:01.442Z,5.13
2019-01-30T02:00:35.544Z,4.60
2019-01-30T02:03:03.803Z,5.03
2019-01-30T02:05:34.110Z,4.63
2019-01-30T02:08:04.425Z,4.57
2019-01-30T02:10:35.769Z,4.77
2019-01-30T02:13:06.419Z,4.43
2019-01-30T02:15:36.688Z,7.27
2019-01-30T02:18:08.527Z,4.77
2019-01-30T02:20:38.901Z,6.00
2019-01-30T02:23:09.230Z,4.00
2019-01-30T02:25:39.472Z,6.17
2019-01-30T02:28:09.830Z,5.77
2019-01-30T02:30:47.077Z,3.40
2019-01-30T02:33:12.171Z,4.23
2019-01-30T02:35:42.497Z,3.40
2019-01-30T02:38:12.844Z,3.10
2019-01-30T02:40:43.164Z,4.87
2019-01-30T02:43:13.515Z,4.00
2019-01-30T02:45:43.929Z,3.53
2019-01-30T02:48:14.200Z,3.90
2019-01-30T02:50:44.603Z,4.03
2019-01-30T02:53:15.055Z,5.00
2019-01-30T02:55:45.274Z,4.30
2019-01-30T02:58:15.534Z,5.80
2019-01-30T03:00:45.835Z,5.97
2019-01-30T03:03:16.063Z,5.80
2019-01-30T03:05:46.345Z,5.20
2019-01-30T03:08:16.702Z,3.33
2019-01-30T03:10:46.937Z,3.83
2019-01-30T03:13:17.253Z,5.57
2019-01-30T03:15:47.532Z,3.77
2019-01-30T03:18:17.844Z,5.57
2019-01-30T03:20:48.076Z,5.33
2019-01-30T03:23:18.354Z,4.13
2019-01-30T03:25:48.726Z,5.47
2019-01-30T03:28:19.058Z,4.13
2019-01-30T03:30:49.380Z,4.70
2019-01-30T03:33:19.701Z,4.27
2019-01-30T03:35:50.044Z,4.17
2019-01-30T03:38:20.314Z,3.70
2019-01-30T03:40:50.547Z,3.20
2019-01-30T03:43:20.966Z,5.37
2019-01-30T03:45:51.702Z,3.73
2019-01-30T03:48:21.948Z,4.37
2019-01-30T03:50:52.202Z,3.90
2019-01-30T03:53:22.515Z,4.33
2019-01-30T03:55:53.791Z,4.97
2019-01-30T03:58:24.046Z,6.97
2019-01-30T04:00:54.362Z,4.47
2019-01-30T04:03:25.159Z,3.67
2019-01-30T04:05:55.591Z,7.93
2019-01-30T04:08:25.907Z,5.50
2019-01-30T04:10:56.352Z,4.87
2019-01-30T04:13:27.590Z,4.60
2019-01-30T04:15:57.947Z,5.17
2019-01-30T04:18:28.319Z,5.60
2019-01-30T04:20:58.674Z,6.00
2019-01-30T04:23:29.073Z,5.00
2019-01-30T04:25:59.434Z,5.40
2019-01-30T04:28:29.718Z,5.80
2019-01-30T04:30:59.972Z,7.97
2019-01-30T04:33:31.311Z,6.53
2019-01-30T04:36:01.547Z,5.10
2019-01-30T04:38:31.846Z,9.77
2019-01-30T04:41:02.136Z,6.27
2019-01-30T04:43:32.419Z,5.90
2019-01-30T04:46:02.679Z,6.63
2019-01-30T04:48:33.043Z,6.03
2019-01-30T04:51:03.426Z,6.33
2019-01-30T04:53:34.123Z,5.00
2019-01-30T04:56:05.357Z,5.67
2019-01-30T04:58:35.641Z,6.20
2019-01-30T05:01:05.993Z,12.10
2019-01-30T05:03:36.343Z,5.70
2019-01-30T05:06:06.580Z,6.13
2019-01-30T05:08:36.821Z,7.13
2019-01-30T05:11:07.052Z,7.03
2019-01-30T05:13:37.533Z,5.87
2019-01-30T05:16:08.099Z,9.33
2019-01-30T05:18:38.450Z,5.77
2019-01-30T05:21:08.698Z,5.93
2019-01-30T05:23:38.994Z,6.17
2019-01-30T05:26:09.215Z,6.30
2019-01-30T05:28:39.549Z,6.30
2019-01-30T05:31:09.835Z,8.50
2019-01-30T05:33:40.133Z,8.27
2019-01-30T05:36:10.487Z,6.47
2019-01-30T05:38:41.092Z,5.83
2019-01-30T05:41:11.213Z,6.47
2019-01-30T05:43:42.626Z,7.27
2019-01-30T05:46:12.975Z,7.33
2019-01-30T05:48:43.130Z,5.83
2019-01-30T05:51:13.365Z,7.37
2019-01-30T05:53:43.647Z,7.90
2019-01-30T05:56:13.973Z,7.67
2019-01-30T05:58:44.238Z,6.17
2019-01-30T06:01:14.875Z,5.90
2019-01-30T06:03:45.061Z,5.63
2019-01-30T06:06:15.423Z,7.37
2019-01-30T06:08:45.760Z,8.80
2019-01-30T06:11:16.029Z,8.83
2019-01-30T06:13:46.292Z,6.20
2019-01-30T06:16:16.587Z,6.17
2019-01-30T06:18:46.831Z,7.43
2019-01-30T06:21:17.055Z,5.53
2019-01-30T06:23:47.333Z,6.07
2019-01-30T06:26:17.653Z,7.20
2019-01-30T06:28:47.784Z,7.93
2019-01-30T06:31:18.043Z,8.23
2019-01-30T06:33:48.200Z,6.13
2019-01-30T06:36:18.487Z,6.40
2019-01-30T06:38:48.727Z,7.33
2019-01-30T06:41:18.942Z,5.57
2019-01-30T06:43:49.223Z,7.77
2019-01-30T06:46:19.536Z,6.33
2019-01-30T06:48:49.763Z,6.40
2019-01-30T06:51:20.055Z,8.07
2019-01-30T06:53:50.370Z,6.97
2019-01-30T06:56:20.690Z,6.27
2019-01-30T06:58:50.864Z,9.23
2019-01-30T07:01:21.062Z,5.83
2019-01-30T07:03:51.338Z,7.10
2019-01-30T07:06:21.643Z,6.30
2019-01-30T07:08:51.992Z,7.00
2019-01-30T07:11:22.221Z,5.90
2019-01-30T07:13:52.445Z,7.20
2019-01-30T07:16:22.560Z,8.03
2019-01-30T07:18:52.819Z,6.90
2019-01-30T07:21:23.691Z,7.60
2019-01-30T07:23:53.937Z,5.53
2019-01-30T07:26:24.783Z,6.33
2019-01-30T07:28:55.007Z,7.63
2019-01-30T07:31:25.287Z,6.27
2019-01-30T07:33:55.443Z,6.23
2019-01-30T07:36:25.820Z,4.93
2019-01-30T07:38:55.954Z,5.80
2019-01-30T07:41:26.245Z,5.90
2019-01-30T07:43:56.435Z,6.33
2019-01-30T07:46:26.692Z,5.53
2019-01-30T07:48:57.023Z,9.87
2019-01-30T07:51:27.275Z,6.30
2019-01-30T07:53:57.471Z,6.83
2019-01-30T07:56:28.997Z,5.20
2019-01-30T07:58:59.354Z,6.77
2019-01-30T08:01:30.458Z,5.57
2019-01-30T08:04:00.658Z,7.03
2019-01-30T08:06:30.874Z,6.43
2019-01-30T08:09:01.150Z,5.60
2019-01-30T08:11:33.156Z,5.43
2019-01-30T08:14:03.391Z,6.37
2019-01-30T08:16:33.649Z,6.40
2019-01-30T08:19:03.970Z,5.90
2019-01-30T08:21:34.134Z,5.00
2019-01-30T08:24:05.040Z,5.83
2019-01-30T08:26:35.528Z,5.83
2019-01-30T08:29:05.956Z,7.37
2019-01-30T08:31:36.255Z,8.63
2019-01-30T08:34:06.439Z,6.90
2019-01-30T08:36:36.680Z,6.10
2019-01-30T08:39:08.645Z,6.73
2019-01-30T08:41:38.994Z,6.87
2019-01-30T08:44:09.207Z,7.40
2019-01-30T08:46:39.556Z,8.80
2019-01-30T08:49:09.842Z,8.27
2019-01-30T08:51:40.181Z,5.60
2019-01-30T08:54:10.494Z,6.13
2019-01-30T08:56:52.513Z,9.60
2019-01-30T08:59:12.648Z,6.43
2019-01-30T09:01:42.965Z,7.20
2019-01-30T09:04:13.287Z,5.70
2019-01-30T09:06:43.554Z,6.70
2019-01-30T09:09:13.870Z,5.93
2019-01-30T09:11:44.096Z,7.60
2019-01-30T09:14:14.468Z,6.50
2019-01-30T09:16:45.010Z,8.33
2019-01-30T09:19:15.288Z,7.57
2019-01-30T09:21:45.651Z,7.37
2019-01-30T09:24:16.217Z,7.67
2019-01-30T09:26:46.590Z,7.40
2019-01-30T09:29:16.831Z,7.93
2019-01-30T09:31:47.055Z,10.47
2019-01-30T09:34:17.253Z,7.33
2019-01-30T09:36:47.651Z,7.73
2019-01-30T09:39:18.000Z,7.00
2019-01-30T09:41:48.212Z,12.27
2019-01-30T09:44:18.429Z,10.17
2019-01-30T09:46:48.753Z,9.17
2019-01-30T09:49:19.162Z,8.87
2019-01-30T09:51:49.469Z,7.67
2019-01-30T09:54:19.873Z,8.63
2019-01-30T09:56:50.237Z,10.67
2019-01-30T09:59:20.704Z,10.07
2019-01-30T10:01:50.948Z,8.33
2019-01-30T10:04:21.190Z,10.73
2019-01-30T10:06:51.505Z,11.47
2019-01-30T10:09:22.822Z,11.73
2019-01-30T10:11:53.975Z,12.97
2019-01-30T10:14:24.273Z,10.47
2019-01-30T10:16:54.737Z,11.13
2019-01-30T10:19:24.974Z,9.00
2019-01-30T10:21:55.249Z,10.43
2019-01-30T10:24:25.607Z,10.40
2019-01-30T10:26:55.890Z,15.03
2019-01-30T10:29:26.470Z,12.47
2019-01-30T10:31:56.652Z,14.23
2019-01-30T10:34:26.943Z,13.87
2019-01-30T10:36:57.215Z,12.03
2019-01-30T10:39:27.466Z,13.03
2019-01-30T10:41:57.726Z,10.43
2019-01-30T10:44:28.021Z,17.57
2019-01-30T10:46:58.479Z,13.90
2019-01-30T10:49:28.864Z,11.00
2019-01-30T10:51:59.171Z,14.53
2019-01-30T10:54:29.442Z,13.87
2019-01-30T10:56:59.785Z,15.50
2019-01-30T10:59:30.130Z,15.07
2019-01-30T11:02:00.568Z,13.53
2019-01-30T11:04:30.808Z,16.83
2019-01-30T11:07:01.495Z,13.70
2019-01-30T11:09:31.833Z,15.90
2019-01-30T11:12:02.090Z,15.47
2019-01-30T11:14:32.420Z,11.73
2019-01-30T11:17:02.668Z,19.43
2019-01-30T11:19:32.955Z,14.10
2019-01-30T11:22:03.154Z,12.83
2019-01-30T11:24:33.348Z,11.57
2019-01-30T11:27:03.703Z,14.43
2019-01-30T11:29:33.806Z,16.20
2019-01-30T11:32:04.204Z,18.70
2019-01-30T11:34:34.536Z,14.73
2019-01-30T11:37:04.745Z,14.97
2019-01-30T11:39:35.028Z,13.87
2019-01-30T11:42:05.398Z,14.13
2019-01-30T11:44:36.011Z,17.23
2019-01-30T11:47:06.442Z,16.70
2019-01-30T11:49:36.751Z,14.57
2019-01-30T11:52:07.337Z,15.37
2019-01-30T11:54:38.923Z,18.00
2019-01-30T11:57:09.563Z,14.17
2019-01-30T11:59:39.745Z,14.20
2019-01-30T12:02:10.140Z,17.50
2019-01-30T12:04:40.340Z,12.90
2019-01-30T12:07:10.542Z,16.33
2019-01-30T12:09:40.811Z,18.20
2019-01-30T12:12:11.108Z,16.53
2019-01-30T12:14:41.448Z,15.93
2019-01-30T12:17:11.695Z,14.67
2019-01-30T12:19:42.895Z,14.83
2019-01-30T12:22:13.294Z,19.87
2019-01-30T12:24:43.675Z,15.23
2019-01-30T12:27:14.035Z,14.93
2019-01-30T12:29:44.341Z,17.60
2019-01-30T12:32:14.596Z,14.77
2019-01-30T12:34:44.814Z,19.00
2019-01-30T12:37:15.214Z,17.47
2019-01-30T12:39:45.483Z,18.90
2019-01-30T12:42:15.771Z,20.97
2019-01-30T12:44:46.066Z,18.07
2019-01-30T12:47:19.923Z,18.17
2019-01-30T12:49:48.365Z,16.67
2019-01-30T12:52:18.750Z,12.07
2019-01-30T12:54:49.046Z,15.97
2019-01-30T12:57:19.303Z,16.83
2019-01-30T12:59:49.570Z,16.37
2019-01-30T13:02:19.840Z,17.47
2019-01-30T13:04:50.115Z,18.60
2019-01-30T13:07:20.367Z,19.23
2019-01-30T13:09:50.721Z,19.27
2019-01-30T13:12:21.006Z,24.07
2019-01-30T13:14:51.680Z,18.13
2019-01-30T13:17:22.337Z,17.13
2019-01-30T13:19:52.582Z,20.70
2019-01-30T13:22:22.892Z,14.03
2019-01-30T13:24:53.164Z,19.03
2019-01-30T13:27:23.838Z,17.40
2019-01-30T13:29:54.127Z,22.87
2019-01-30T13:32:24.452Z,24.33
2019-01-30T13:34:54.698Z,26.47
2019-01-30T13:37:25.054Z,20.00
2019-01-30T13:39:55.637Z,27.70
2019-01-30T13:42:25.984Z,25.77
2019-01-30T13:44:56.300Z,23.77
2019-01-30T13:47:26.520Z,19.53
2019-01-30T13:49:56.791Z,20.87
2019-01-30T13:52:26.993Z,22.43
2019-01-30T13:54:57.218Z,19.00
2019-01-30T13:57:27.425Z,18.53
2019-01-30T13:59:58.859Z,20.33
2019-01-30T14:02:29.497Z,18.60
2019-01-30T14:04:59.880Z,20.30
2019-01-30T14:07:30.366Z,18.33
2019-01-30T14:10:00.556Z,18.73
2019-01-30T14:12:30.786Z,19.30
2019-01-30T14:15:01.024Z,17.67
2019-01-30T14:17:32.424Z,23.10
2019-01-30T14:20:02.831Z,27.00
2019-01-30T14:22:33.145Z,25.20
2019-01-30T14:25:03.497Z,22.03
2019-01-30T14:27:33.833Z,31.10
2019-01-30T14:30:05.591Z,23.27
2019-01-30T14:32:35.902Z,19.13
2019-01-30T14:35:10.899Z,23.23
2019-01-30T14:37:39.552Z,42.87
2019-01-30T14:40:11.064Z,24.87
2019-01-30T14:42:41.346Z,22.13
2019-01-30T14:45:12.924Z,23.57
2019-01-30T14:47:43.223Z,31.67
2019-01-30T14:50:16.106Z,27.07
2019-01-30T14:52:46.467Z,26.40
2019-01-30T14:55:17.277Z,25.23
2019-01-30T14:57:48.828Z,49.27
2019-01-30T15:00:21.375Z,25.70
2019-01-30T15:02:51.676Z,26.37
2019-01-30T15:05:23.050Z,26.23
2019-01-30T15:07:53.751Z,24.87
2019-01-30T15:10:24.140Z,24.80
2019-01-30T15:12:54.376Z,30.93
2019-01-30T15:15:26.368Z,24.27
2019-01-30T15:17:56.729Z,24.83
2019-01-30T15:20:29.142Z,24.07
2019-01-30T15:23:00.280Z,24.90
2019-01-30T15:25:31.681Z,25.13
2019-01-30T15:28:02.293Z,26.50
2019-01-30T15:30:34.910Z,30.90
2019-01-30T15:33:05.890Z,31.77
2019-01-30T15:35:36.157Z,25.47
2019-01-30T15:38:09.822Z,24.33
2019-01-30T15:40:40.694Z,24.80
2019-01-30T15:43:11.022Z,27.47
2019-01-30T15:45:41.393Z,25.37
2019-01-30T15:48:11.708Z,23.90
2019-01-30T15:50:43.110Z,27.00
2019-01-30T15:53:15.693Z,24.10
2019-01-30T15:55:46.038Z,29.17
2019-01-30T15:58:16.520Z,34.40
2019-01-30T16:00:49.555Z,30.63
2019-01-30T16:03:19.878Z,36.33
2019-01-30T16:05:52.181Z,31.60
2019-01-30T16:08:22.587Z,36.40
2019-01-30T16:10:52.855Z,36.77
2019-01-30T16:13:23.062Z,32.30
2019-01-30T16:15:58.891Z,31.87
2019-01-30T16:18:29.720Z,33.40
2019-01-30T16:20:59.926Z,30.97
2019-01-30T16:23:31.307Z,33.40
2019-01-30T16:26:01.473Z,31.20
2019-01-30T16:28:31.814Z,32.60
2019-01-30T16:31:02.065Z,30.07
2019-01-30T16:33:32.384Z,33.37
2019-01-30T16:36:02.744Z,32.87
2019-01-30T16:38:32.999Z,29.87
2019-01-30T16:41:03.380Z,32.37
2019-01-30T16:43:33.912Z,30.13
2019-01-30T16:46:04.215Z,27.97
2019-01-30T16:48:34.433Z,27.87
2019-01-30T16:51:04.742Z,24.20
2019-01-30T16:53:34.980Z,28.17
2019-01-30T16:56:05.677Z,27.07
2019-01-30T16:58:35.839Z,25.93
2019-01-30T17:01:06.336Z,25.33
2019-01-30T17:03:36.667Z,31.17
2019-01-30T17:06:07.872Z,32.30
2019-01-30T17:08:38.403Z,24.83
2019-01-30T17:11:08.742Z,25.23
2019-01-30T17:13:39.068Z,26.30
2019-01-30T17:16:09.372Z,29.53
2019-01-30T17:18:39.703Z,25.23
2019-01-30T17:21:10.113Z,25.17
2019-01-30T17:23:40.486Z,25.03
2019-01-30T17:26:10.917Z,20.97
2019-01-30T17:28:41.443Z,25.83
2019-01-30T17:31:15.469Z,22.00
2019-01-30T17:33:45.673Z,22.13
2019-01-30T17:36:18.519Z,22.47
2019-01-30T17:38:47.895Z,21.00
2019-01-30T17:41:18.443Z,20.37
2019-01-30T17:43:49.711Z,22.17
2019-01-30T17:46:20.040Z,21.50
2019-01-30T17:48:51.275Z,23.37
2019-01-30T17:51:22.689Z,27.43
2019-01-30T17:53:53.384Z,23.97
2019-01-30T17:56:23.668Z,22.50
2019-01-30T17:58:54.569Z,24.57
2019-01-30T18:01:25.148Z,25.83
2019-01-30T18:03:55.475Z,38.27
2019-01-30T18:06:29.970Z,25.03
2019-01-30T18:08:57.694Z,24.47
2019-01-30T18:11:28.023Z,24.87
2019-01-30T18:13:58.266Z,22.20
2019-01-30T18:16:28.595Z,23.33
2019-01-30T18:18:58.860Z,25.73
2019-01-30T18:21:31.996Z,26.60
2019-01-30T18:24:01.243Z,24.23
2019-01-30T18:26:33.579Z,23.67
2019-01-30T18:29:03.905Z,25.87
2019-01-30T18:31:34.234Z,21.60
2019-01-30T18:34:05.012Z,25.50
2019-01-30T18:36:41.026Z,24.03
2019-01-30T18:39:09.771Z,25.53
2019-01-30T18:41:41.022Z,27.47
2019-01-30T18:44:12.439Z,26.87
2019-01-30T18:46:42.907Z,24.00
2019-01-30T18:49:13.286Z,24.87
2019-01-30T18:51:43.582Z,21.40
2019-01-30T18:54:13.843Z,28.03
2019-01-30T18:56:44.202Z,37.80
2019-01-30T18:59:14.484Z,26.33
2019-01-30T19:01:44.780Z,27.63
2019-01-30T19:04:15.064Z,25.27
2019-01-30T19:06:52.111Z,27.50
2019-01-30T19:09:17.316Z,24.83
2019-01-30T19:11:47.519Z,27.60
2019-01-30T19:14:17.791Z,24.87
2019-01-30T19:16:48.187Z,26.30
2019-01-30T19:19:19.506Z,27.87
2019-01-30T19:21:50.017Z,27.43
2019-01-30T19:24:20.407Z,29.80
2019-01-30T19:26:50.603Z,25.57
2019-01-30T19:29:20.850Z,24.50
2019-01-30T19:31:51.192Z,24.10
2019-01-30T19:34:21.289Z,26.60
2019-01-30T19:37:02.988Z,23.53
2019-01-30T19:39:23.622Z,26.47
2019-01-30T19:41:53.915Z,25.37
2019-01-30T19:44:24.223Z,27.10
2019-01-30T19:46:55.973Z,28.13
2019-01-30T19:49:26.348Z,25.17
2019-01-30T19:51:56.977Z,32.03
2019-01-30T19:54:27.307Z,39.77
2019-01-30T19:56:57.744Z,40.13
2019-01-30T19:59:27.975Z,30.23
2019-01-30T20:01:58.344Z,27.83
2019-01-30T20:04:28.625Z,28.60
2019-01-30T20:06:58.878Z,27.30
2019-01-30T20:09:29.151Z,27.63
2019-01-30T20:11:59.450Z,29.20
2019-01-30T20:14:29.819Z,30.10
2019-01-30T20:17:00.104Z,28.77
2019-01-30T20:19:30.422Z,29.87
2019-01-30T20:22:00.719Z,27.63
2019-01-30T20:24:31.375Z,29.13
2019-01-30T20:27:01.705Z,29.20
2019-01-30T20:29:32.340Z,29.47
2019-01-30T20:32:02.741Z,26.87
2019-01-30T20:34:33.127Z,27.40
2019-01-30T20:37:03.495Z,28.67
2019-01-30T20:39:33.662Z,28.97
2019-01-30T20:42:04.016Z,29.03
2019-01-30T20:44:34.242Z,26.53
2019-01-30T20:47:05.536Z,23.53
2019-01-30T20:49:36.022Z,9.03
2019-01-30T20:52:06.797Z,26.83
2019-01-30T20:54:37.051Z,24.67
2019-01-30T20:57:07.310Z,20.23
2019-01-30T20:59:37.542Z,21.17
2019-01-30T21:02:07.813Z,20.63
2019-01-30T21:04:38.079Z,19.23
2019-01-30T21:07:08.575Z,21.63
2019-01-30T21:09:38.866Z,19.17
2019-01-30T21:12:09.453Z,20.87
2019-01-30T21:14:39.767Z,19.37
2019-01-30T21:17:09.962Z,22.47
2019-01-30T21:19:40.242Z,21.27
2019-01-30T21:22:11.574Z,21.67
2019-01-30T21:24:41.870Z,25.37
2019-01-30T21:27:12.143Z,23.97
2019-01-30T21:29:43.463Z,19.70
2019-01-30T21:32:13.815Z,22.63
2019-01-30T21:34:44.060Z,23.80
2019-01-30T21:37:14.398Z,20.83
2019-01-30T21:39:44.626Z,22.23
2019-01-30T21:42:14.890Z,22.83
2019-01-30T21:44:45.175Z,23.60
2019-01-30T21:47:15.430Z,24.60
2019-01-30T21:49:45.614Z,24.97
2019-01-30T21:52:15.903Z,23.33
2019-01-30T21:54:46.097Z,22.97
2019-01-30T21:57:16.364Z,21.80
2019-01-30T21:59:46.562Z,24.53
2019-01-30T22:02:16.695Z,23.90
2019-01-30T22:04:46.891Z,20.37
2019-01-30T22:07:17.031Z,25.83
2019-01-30T22:09:47.334Z,20.13
2019-01-30T22:12:17.948Z,20.77
2019-01-30T22:14:48.202Z,21.80
2019-01-30T22:17:18.428Z,21.77
2019-01-30T22:19:48.698Z,23.37
2019-01-30T22:22:18.819Z,24.93
2019-01-30T22:24:50.067Z,20.20
2019-01-30T22:27:20.353Z,19.70
2019-01-30T22:29:50.706Z,20.93
2019-01-30T22:32:20.878Z,24.77
2019-01-30T22:34:51.130Z,24.30
2019-01-30T22:37:21.321Z,23.00
2019-01-30T22:39:51.598Z,25.23
2019-01-30T22:42:21.758Z,18.43
2019-01-30T22:44:51.959Z,22.00
2019-01-30T22:47:22.241Z,21.10
2019-01-30T22:49:52.458Z,19.20
2019-01-30T22:52:22.609Z,22.50
2019-01-30T22:54:53.109Z,20.30
2019-01-30T22:57:23.641Z,19.73
2019-01-30T22:59:53.888Z,19.80
2019-01-30T23:02:24.201Z,18.60
2019-01-30T23:05:06.492Z,19.67
2019-01-30T23:08:04.975Z,21.30
2019-01-30T23:11:03.139Z,21.93
2019-01-30T23:13:54.683Z,16.63
2019-01-30T23:17:03.134Z,22.83
2019-01-30T23:19:57.911Z,19.67
2019-01-30T23:22:58.318Z,25.40
2019-01-30T23:25:53.120Z,17.70
2019-01-30T23:29:12.090Z,21.67
2019-01-30T23:32:29.411Z,20.23
2019-01-30T23:35:46.559Z,13.73
2019-01-30T23:38:53.417Z,15.97
2019-01-30T23:42:06.440Z,18.77
2019-01-30T23:45:16.487Z,21.40
2019-01-30T23:48:30.572Z,18.50
2019-01-30T23:51:16.640Z,16.47
2019-01-30T23:54:03.952Z,19.03
2019-01-30T23:57:05.035Z,24.73
2019-01-30T23:59:57.660Z,16.50
